sensor_id;sensor_type;location;lat;lon;timestamp;pressure;altitude;pressure_sealevel;temperature;humidity
85768;BME280;76209;0.000;0.000;2024-02-15T21:50:01;97572.91;;;20.30;37.13
85768;BME280;76209;0.000;0.000;2024-02-15T21:52:45;97570.06;;;20.37;36.82
85768;BME280;76209;0.000;0.000;2024-02-15T21:55:29;97562.66;;;20.72;36.25
85768;BME280;76209;0.000;0.000;2024-02-15T21:59:05;97562.56;;;21.17;35.58
85768;BME280;76209;0.000;0.000;2024-02-15T22:01:50;97563.44;;;21.39;34.62
85768;BME280;76209;0.000;0.000;2024-02-15T22:04:35;97569.91;;;21.43;34.49
85768;BME280;76209;0.000;0.000;2024-02-15T22:07:20;97570.25;;;21.47;34.70
85768;BME280;76209;0.000;0.000;2024-02-15T22:10:07;97576.44;;;21.47;34.53
85768;BME280;76209;0.000;0.000;2024-02-15T22:12:53;97573.53;;;21.32;34.96
85768;BME280;76209;0.000;0.000;2024-02-15T22:15:39;97564.44;;;20.66;36.56
85768;BME280;76209;0.000;0.000;2024-02-15T22:18:22;97566.34;;;20.38;37.02
85768;BME280;76209;0.000;0.000;2024-02-15T22:21:07;97578.03;;;20.20;37.17
85768;BME280;76209;0.000;0.000;2024-02-15T22:23:53;97566.09;;;20.11;37.40
85768;BME280;76209;0.000;0.000;2024-02-15T22:26:37;97574.50;;;20.03;37.43
85768;BME280;76209;0.000;0.000;2024-02-15T22:29:22;97567.91;;;19.94;36.82
85768;BME280;76209;0.000;0.000;2024-02-15T22:32:07;97575.81;;;19.89;37.31
85768;BME280;76209;0.000;0.000;2024-02-15T22:34:51;97567.44;;;19.85;37.05
85768;BME280;76209;0.000;0.000;2024-02-15T22:37:36;97571.41;;;19.83;37.35
85768;BME280;76209;0.000;0.000;2024-02-15T22:40:20;97574.56;;;19.80;37.48
85768;BME280;76209;0.000;0.000;2024-02-15T22:43:04;97575.84;;;19.77;37.02
85768;BME280;76209;0.000;0.000;2024-02-15T22:45:48;97574.69;;;19.73;37.76
85768;BME280;76209;0.000;0.000;2024-02-15T22:48:33;97574.38;;;19.70;37.50
85768;BME280;76209;0.000;0.000;2024-02-15T22:51:17;97574.59;;;19.68;36.98
85768;BME280;76209;0.000;0.000;2024-02-15T22:54:02;97571.56;;;19.64;37.03
85768;BME280;76209;0.000;0.000;2024-02-15T22:56:46;97571.81;;;19.63;37.79
85768;BME280;76209;0.000;0.000;2024-02-15T22:59:30;97572.88;;;19.62;37.10
85768;BME280;76209;0.000;0.000;2024-02-15T23:02:14;97568.53;;;19.61;37.70
85768;BME280;76209;0.000;0.000;2024-02-15T23:04:59;97568.53;;;19.61;37.73
85768;BME280;76209;0.000;0.000;2024-02-15T23:07:45;97569.38;;;19.61;37.56
85768;BME280;76209;0.000;0.000;2024-02-15T23:10:29;97567.50;;;19.62;37.35
85768;BME280;76209;0.000;0.000;2024-02-15T23:13:13;97569.38;;;19.61;37.66
85768;BME280;76209;0.000;0.000;2024-02-15T23:15:57;97571.22;;;19.61;37.05
85768;BME280;76209;0.000;0.000;2024-02-15T23:18:41;97562.16;;;19.62;37.62
85768;BME280;76209;0.000;0.000;2024-02-15T23:21:26;97571.00;;;19.62;36.90
85768;BME280;76209;0.000;0.000;2024-02-15T23:24:10;97559.25;;;19.63;37.56
85768;BME280;76209;0.000;0.000;2024-02-15T23:26:54;97560.03;;;19.64;37.51
85768;BME280;76209;0.000;0.000;2024-02-15T23:29:38;97556.78;;;19.62;37.63
85768;BME280;76209;0.000;0.000;2024-02-15T23:32:22;97559.47;;;19.62;37.69
85768;BME280;76209;0.000;0.000;2024-02-15T23:35:07;97553.31;;;19.61;36.98
85768;BME280;76209;0.000;0.000;2024-02-15T23:37:55;97547.13;;;19.61;37.46
85768;BME280;76209;0.000;0.000;2024-02-15T23:40:58;97552.47;;;19.61;37.51
85768;BME280;76209;0.000;0.000;2024-02-15T23:43:45;97551.44;;;19.62;37.54
85768;BME280;76209;0.000;0.000;2024-02-15T23:46:29;97540.72;;;19.62;37.71
85768;BME280;76209;0.000;0.000;2024-02-15T23:49:14;97544.22;;;19.62;37.09
85768;BME280;76209;0.000;0.000;2024-02-15T23:51:58;97543.41;;;19.62;37.83
85768;BME280;76209;0.000;0.000;2024-02-15T23:54:43;97546.91;;;19.62;37.13
85768;BME280;76209;0.000;0.000;2024-02-15T23:57:27;97543.41;;;19.62;37.56
